sensor_id;sensor_type;location;lat;lon;timestamp;pressure;altitude;pressure_sealevel;temperature;humidity
48530;BME280;34927;37.302;-121.982;2023-03-23T00:00:18;100734.0;;;22.55;35.28
48530;BME280;34927;37.302;-121.982;2023-03-23T00:01:22;100735.0;;;22.57;35.23
48530;BME280;34927;37.302;-121.982;2023-03-23T00:02:29;100735.0;;;22.53;35.25
48530;BME280;34927;37.302;-121.982;2023-03-23T00:03:34;100740.0;;;22.55;35.29
48530;BME280;34927;37.302;-121.982;2023-03-23T00:04:37;100741.0;;;22.54;35.27
48530;BME280;34927;37.302;-121.982;2023-03-23T00:05:41;100741.0;;;22.55;35.31
48530;BME280;34927;37.302;-121.982;2023-03-23T00:06:47;100744.0;;;22.51;35.35
48530;BME280;34927;37.302;-121.982;2023-03-23T00:07:52;100747.0;;;22.50;35.32
48530;BME280;34927;37.302;-121.982;2023-03-23T00:08:56;100748.0;;;22.50;35.30
48530;BME280;34927;37.302;-121.982;2023-03-23T00:10:02;100748.0;;;22.48;35.35
48530;BME280;34927;37.302;-121.982;2023-03-23T00:11:07;100749.0;;;22.51;35.32
48530;BME280;34927;37.302;-121.982;2023-03-23T00:12:11;100751.0;;;22.47;35.34
48530;BME280;34927;37.302;-121.982;2023-03-23T00:13:17;100750.0;;;22.49;35.36
48530;BME280;34927;37.302;-121.982;2023-03-23T00:14:23;100752.0;;;22.44;35.40
48530;BME280;34927;37.302;-121.982;2023-03-23T00:15:27;100752.0;;;22.48;35.39
48530;BME280;34927;37.302;-121.982;2023-03-23T00:16:34;100753.0;;;22.44;35.42
48530;BME280;34927;37.302;-121.982;2023-03-23T00:17:37;100756.0;;;22.39;35.45
48530;BME280;34927;37.302;-121.982;2023-03-23T00:18:42;100758.0;;;22.39;35.52
48530;BME280;34927;37.302;-121.982;2023-03-23T00:19:46;100759.0;;;22.46;35.50
48530;BME280;34927;37.302;-121.982;2023-03-23T00:20:54;100763.0;;;22.44;35.48
48530;BME280;34927;37.302;-121.982;2023-03-23T00:21:57;100761.0;;;22.42;35.53
48530;BME280;34927;37.302;-121.982;2023-03-23T00:23:02;100765.0;;;22.40;35.51
48530;BME280;34927;37.302;-121.982;2023-03-23T00:24:09;100764.0;;;22.43;35.44
48530;BME280;34927;37.302;-121.982;2023-03-23T00:25:12;100765.0;;;22.43;35.42
48530;BME280;34927;37.302;-121.982;2023-03-23T00:26:17;100767.0;;;22.45;35.45
48530;BME280;34927;37.302;-121.982;2023-03-23T00:27:22;100770.0;;;22.45;35.43
48530;BME280;34927;37.302;-121.982;2023-03-23T00:28:27;100770.0;;;22.43;35.49
48530;BME280;34927;37.302;-121.982;2023-03-23T00:29:32;100773.0;;;22.40;35.50
48530;BME280;34927;37.302;-121.982;2023-03-23T00:30:37;100776.0;;;22.40;35.52
48530;BME280;34927;37.302;-121.982;2023-03-23T00:31:43;100782.0;;;22.37;35.59
48530;BME280;34927;37.302;-121.982;2023-03-23T00:32:47;100781.0;;;22.20;35.90
48530;BME280;34927;37.302;-121.982;2023-03-23T00:33:53;100784.0;;;22.13;36.08
48530;BME280;34927;37.302;-121.982;2023-03-23T00:34:57;100786.0;;;22.17;36.02
48530;BME280;34927;37.302;-121.982;2023-03-23T00:36:02;100789.0;;;22.17;35.99
48530;BME280;34927;37.302;-121.982;2023-03-23T00:37:08;100795.0;;;22.15;36.09
48530;BME280;34927;37.302;-121.982;2023-03-23T00:38:12;100797.0;;;22.17;36.05
48530;BME280;34927;37.302;-121.982;2023-03-23T00:39:17;100801.0;;;22.17;36.03
48530;BME280;34927;37.302;-121.982;2023-03-23T00:40:21;100800.0;;;22.19;35.96
48530;BME280;34927;37.302;-121.982;2023-03-23T00:41:28;100802.0;;;22.20;35.99
48530;BME280;34927;37.302;-121.982;2023-03-23T00:42:32;100802.0;;;22.15;36.04
48530;BME280;34927;37.302;-121.982;2023-03-23T00:43:37;100803.0;;;22.18;35.99
48530;BME280;34927;37.302;-121.982;2023-03-23T00:44:41;100804.0;;;22.13;36.04
48530;BME280;34927;37.302;-121.982;2023-03-23T00:45:46;100804.0;;;22.15;36.11
48530;BME280;34927;37.302;-121.982;2023-03-23T00:46:52;100801.0;;;22.13;36.15
48530;BME280;34927;37.302;-121.982;2023-03-23T00:47:56;100804.0;;;22.08;36.25
48530;BME280;34927;37.302;-121.982;2023-03-23T00:49:03;100805.0;;;22.18;36.06
48530;BME280;34927;37.302;-121.982;2023-03-23T00:50:08;100809.0;;;22.15;36.10
48530;BME280;34927;37.302;-121.982;2023-03-23T00:51:12;100808.0;;;22.10;36.15
48530;BME280;34927;37.302;-121.982;2023-03-23T00:52:23;100813.0;;;22.17;36.06
48530;BME280;34927;37.302;-121.982;2023-03-23T00:53:26;100812.0;;;22.18;36.01
48530;BME280;34927;37.302;-121.982;2023-03-23T00:54:32;100813.0;;;22.15;36.15
48530;BME280;34927;37.302;-121.982;2023-03-23T00:55:39;100815.0;;;22.27;35.97
48530;BME280;34927;37.302;-121.982;2023-03-23T00:56:42;100814.0;;;22.50;35.69
48530;BME280;34927;37.302;-121.982;2023-03-23T00:57:47;100814.0;;;22.86;35.20
48530;BME280;34927;37.302;-121.982;2023-03-23T00:58:52;100816.0;;;23.17;34.66
48530;BME280;34927;37.302;-121.982;2023-03-23T00:59:57;100812.0;;;23.51;34.12
48530;BME280;34927;37.302;-121.982;2023-03-23T01:01:01;100815.0;;;23.81;33.61
48530;BME280;34927;37.302;-121.982;2023-03-23T01:02:07;100818.0;;;24.06;33.22
48530;BME280;34927;37.302;-121.982;2023-03-23T01:03:13;100821.0;;;24.29;32.78
48530;BME280;34927;37.302;-121.982;2023-03-23T01:04:17;100822.0;;;24.50;32.50
48530;BME280;34927;37.302;-121.982;2023-03-23T01:05:22;100824.0;;;24.50;32.46
48530;BME280;34927;37.302;-121.982;2023-03-23T01:06:27;100826.0;;;24.36;32.69
48530;BME280;34927;37.302;-121.982;2023-03-23T01:07:33;100831.0;;;24.26;32.94
48530;BME280;34927;37.302;-121.982;2023-03-23T01:08:38;100833.0;;;24.06;33.16
48530;BME280;34927;37.302;-121.982;2023-03-23T01:09:42;100836.0;;;23.78;33.59
48530;BME280;34927;37.302;-121.982;2023-03-23T01:10:47;100836.0;;;23.58;33.77
48530;BME280;34927;37.302;-121.982;2023-03-23T01:11:53;100840.0;;;23.41;34.11
48530;BME280;34927;37.302;-121.982;2023-03-23T01:12:57;100843.0;;;23.34;34.14
48530;BME280;34927;37.302;-121.982;2023-03-23T01:14:04;100846.0;;;23.27;34.17
48530;BME280;34927;37.302;-121.982;2023-03-23T01:15:08;100845.0;;;23.18;34.43
48530;BME280;34927;37.302;-121.982;2023-03-23T01:16:12;100845.0;;;23.17;34.25
48530;BME280;34927;37.302;-121.982;2023-03-23T01:17:16;100847.0;;;23.31;34.20
48530;BME280;34927;37.302;-121.982;2023-03-23T01:18:22;100842.0;;;23.56;33.86
48530;BME280;34927;37.302;-121.982;2023-03-23T01:19:28;100845.0;;;23.86;33.47
48530;BME280;34927;37.302;-121.982;2023-03-23T01:20:32;100846.0;;;24.09;33.08
48530;BME280;34927;37.302;-121.982;2023-03-23T01:21:37;100847.0;;;24.40;32.70
48530;BME280;34927;37.302;-121.982;2023-03-23T01:22:43;100846.0;;;24.61;32.32
48530;BME280;34927;37.302;-121.982;2023-03-23T01:23:48;100850.0;;;24.70;32.20
48530;BME280;34927;37.302;-121.982;2023-03-23T01:24:52;100850.0;;;24.57;32.37
48530;BME280;34927;37.302;-121.982;2023-03-23T01:25:56;100850.0;;;24.46;32.60
48530;BME280;34927;37.302;-121.982;2023-03-23T01:27:02;100855.0;;;24.34;32.74
48530;BME280;34927;37.302;-121.982;2023-03-23T01:28:06;100854.0;;;24.09;33.10
48530;BME280;34927;37.302;-121.982;2023-03-23T01:29:11;100855.0;;;23.93;33.29
48530;BME280;34927;37.302;-121.982;2023-03-23T01:30:17;100854.0;;;23.82;33.50
48530;BME280;34927;37.302;-121.982;2023-03-23T01:31:24;100853.0;;;23.75;33.60
48530;BME280;34927;37.302;-121.982;2023-03-23T01:32:27;100853.0;;;23.61;33.73
48530;BME280;34927;37.302;-121.982;2023-03-23T01:33:32;100860.0;;;23.47;33.90
48530;BME280;34927;37.302;-121.982;2023-03-23T01:34:37;100862.0;;;23.39;34.13
48530;BME280;34927;37.302;-121.982;2023-03-23T01:35:42;100865.0;;;23.37;34.08
48530;BME280;34927;37.302;-121.982;2023-03-23T01:36:46;100865.0;;;23.33;34.03
48530;BME280;34927;37.302;-121.982;2023-03-23T01:37:51;100868.0;;;23.26;34.21
48530;BME280;34927;37.302;-121.982;2023-03-23T01:38:56;100868.0;;;23.22;34.26
48530;BME280;34927;37.302;-121.982;2023-03-23T01:40:01;100868.0;;;23.12;34.46
48530;BME280;34927;37.302;-121.982;2023-03-23T01:41:06;100870.0;;;23.11;34.45
48530;BME280;34927;37.302;-121.982;2023-03-23T01:42:12;100873.0;;;23.03;34.63
48530;BME280;34927;37.302;-121.982;2023-03-23T01:43:18;100873.0;;;23.08;34.57
48530;BME280;34927;37.302;-121.982;2023-03-23T01:45:37;100877.0;;;23.64;33.84
48530;BME280;34927;37.302;-121.982;2023-03-23T01:46:42;100879.0;;;23.97;33.40
48530;BME280;34927;37.302;-121.982;2023-03-23T01:47:49;100883.0;;;24.24;32.95
48530;BME280;34927;37.302;-121.982;2023-03-23T01:49:00;100883.0;;;24.47;32.58
48530;BME280;34927;37.302;-121.982;2023-03-23T01:50:07;100887.0;;;24.45;32.59
48530;BME280;34927;37.302;-121.982;2023-03-23T01:51:13;100889.0;;;24.35;32.82
48530;BME280;34927;37.302;-121.982;2023-03-23T01:52:20;100890.0;;;24.22;33.01
48530;BME280;34927;37.302;-121.982;2023-03-23T01:53:35;100890.0;;;24.09;33.17
48530;BME280;34927;37.302;-121.982;2023-03-23T01:54:42;100892.0;;;23.91;33.32
48530;BME280;34927;37.302;-121.982;2023-03-23T01:55:49;100893.0;;;23.78;33.50
48530;BME280;34927;37.302;-121.982;2023-03-23T01:57:00;100895.0;;;23.60;33.79
48530;BME280;34927;37.302;-121.982;2023-03-23T01:58:08;100903.0;;;23.47;33.96
48530;BME280;34927;37.302;-121.982;2023-03-23T01:59:12;100902.0;;;23.39;34.13
48530;BME280;34927;37.302;-121.982;2023-03-23T02:00:18;100908.0;;;23.28;34.28
48530;BME280;34927;37.302;-121.982;2023-03-23T02:01:22;100909.0;;;23.22;34.43
48530;BME280;34927;37.302;-121.982;2023-03-23T02:02:27;100911.0;;;23.14;34.48
48530;BME280;34927;37.302;-121.982;2023-03-23T02:03:32;100915.0;;;23.17;34.49
48530;BME280;34927;37.302;-121.982;2023-03-23T02:04:37;100916.0;;;23.09;34.62
48530;BME280;34927;37.302;-121.982;2023-03-23T02:05:43;100918.0;;;22.96;34.79
48530;BME280;34927;37.302;-121.982;2023-03-23T02:06:47;100919.0;;;22.91;34.92
48530;BME280;34927;37.302;-121.982;2023-03-23T02:07:53;100922.0;;;22.80;35.03
48530;BME280;34927;37.302;-121.982;2023-03-23T02:08:56;100921.0;;;22.77;35.19
48530;BME280;34927;37.302;-121.982;2023-03-23T02:10:01;100923.0;;;22.92;34.88
48530;BME280;34927;37.302;-121.982;2023-03-23T02:11:13;100924.0;;;23.18;34.52
48530;BME280;34927;37.302;-121.982;2023-03-23T02:12:17;100921.0;;;23.47;33.97
48530;BME280;34927;37.302;-121.982;2023-03-23T02:13:22;100921.0;;;23.78;33.48
48530;BME280;34927;37.302;-121.982;2023-03-23T02:14:27;100921.0;;;24.09;33.03
48530;BME280;34927;37.302;-121.982;2023-03-23T02:15:40;100923.0;;;24.31;32.65
48530;BME280;34927;37.302;-121.982;2023-03-23T02:16:52;100923.0;;;24.32;32.62
48530;BME280;34927;37.302;-121.982;2023-03-23T02:18:01;100925.0;;;24.11;32.89
48530;BME280;34927;37.302;-121.982;2023-03-23T02:19:20;100923.0;;;23.98;32.94
48530;BME280;34927;37.302;-121.982;2023-03-23T02:20:42;100926.0;;;23.79;33.34
48530;BME280;34927;37.302;-121.982;2023-03-23T02:23:18;100929.0;;;23.41;33.72
48530;BME280;34927;37.302;-121.982;2023-03-23T02:24:43;100933.0;;;23.34;33.94
48530;BME280;34927;37.302;-121.982;2023-03-23T02:26:03;100936.0;;;23.18;34.19
48530;BME280;34927;37.302;-121.982;2023-03-23T02:27:14;100935.0;;;23.06;34.42
48530;BME280;34927;37.302;-121.982;2023-03-23T02:29:56;100939.0;;;22.89;34.74
48530;BME280;34927;37.302;-121.982;2023-03-23T02:31:17;100940.0;;;22.85;34.71
48530;BME280;34927;37.302;-121.982;2023-03-23T02:32:39;100940.0;;;22.90;34.85
48530;BME280;34927;37.302;-121.982;2023-03-23T02:33:50;100940.0;;;23.06;34.61
48530;BME280;34927;37.302;-121.982;2023-03-23T02:34:58;100942.0;;;23.30;34.51
48530;BME280;34927;37.302;-121.982;2023-03-23T02:36:14;100939.0;;;23.66;34.10
48530;BME280;34927;37.302;-121.982;2023-03-23T02:37:24;100941.0;;;24.00;33.62
48530;BME280;34927;37.302;-121.982;2023-03-23T02:38:35;100943.0;;;24.26;33.21
48530;BME280;34927;37.302;-121.982;2023-03-23T02:39:44;100944.0;;;24.34;33.08
48530;BME280;34927;37.302;-121.982;2023-03-23T02:40:53;100945.0;;;24.24;33.18
48530;BME280;34927;37.302;-121.982;2023-03-23T02:42:00;100944.0;;;24.19;33.32
48530;BME280;34927;37.302;-121.982;2023-03-23T02:43:10;100949.0;;;23.94;33.62
48530;BME280;34927;37.302;-121.982;2023-03-23T02:44:17;100950.0;;;23.75;33.87
48530;BME280;34927;37.302;-121.982;2023-03-23T02:45:23;100951.0;;;23.64;34.16
48530;BME280;34927;37.302;-121.982;2023-03-23T02:46:32;100954.0;;;23.47;34.44
48530;BME280;34927;37.302;-121.982;2023-03-23T02:47:38;100955.0;;;23.39;34.74
48530;BME280;34927;37.302;-121.982;2023-03-23T02:48:43;100957.0;;;23.33;34.97
48530;BME280;34927;37.302;-121.982;2023-03-23T02:49:50;100957.0;;;23.23;35.11
48530;BME280;34927;37.302;-121.982;2023-03-23T02:50:58;100960.0;;;23.18;35.24
48530;BME280;34927;37.302;-121.982;2023-03-23T02:52:08;100960.0;;;23.14;35.35
48530;BME280;34927;37.302;-121.982;2023-03-23T02:53:14;100962.0;;;23.10;35.39
48530;BME280;34927;37.302;-121.982;2023-03-23T02:54:22;100966.0;;;23.11;35.31
48530;BME280;34927;37.302;-121.982;2023-03-23T02:55:28;100968.0;;;23.15;35.31
48530;BME280;34927;37.302;-121.982;2023-03-23T02:56:31;100970.0;;;23.10;35.27
48530;BME280;34927;37.302;-121.982;2023-03-23T02:57:37;100970.0;;;23.00;35.57
48530;BME280;34927;37.302;-121.982;2023-03-23T02:58:42;100970.0;;;22.93;35.66
48530;BME280;34927;37.302;-121.982;2023-03-23T02:59:47;100972.0;;;22.90;35.67
48530;BME280;34927;37.302;-121.982;2023-03-23T03:00:51;100974.0;;;22.87;35.62
48530;BME280;34927;37.302;-121.982;2023-03-23T03:02:02;100976.0;;;22.81;35.86
48530;BME280;34927;37.302;-121.982;2023-03-23T03:03:10;100978.0;;;22.91;35.60
48530;BME280;34927;37.302;-121.982;2023-03-23T03:04:19;100977.0;;;22.69;36.12
48530;BME280;34927;37.302;-121.982;2023-03-23T03:05:34;100978.0;;;22.79;35.70
48530;BME280;34927;37.302;-121.982;2023-03-23T03:06:45;100981.0;;;23.03;35.49
48530;BME280;34927;37.302;-121.982;2023-03-23T03:08:00;100981.0;;;23.29;35.02
48530;BME280;34927;37.302;-121.982;2023-03-23T03:09:15;100983.0;;;23.63;34.46
48530;BME280;34927;37.302;-121.982;2023-03-23T03:10:26;100983.0;;;24.00;33.86
48530;BME280;34927;37.302;-121.982;2023-03-23T03:11:35;100987.0;;;24.20;33.45
48530;BME280;34927;37.302;-121.982;2023-03-23T03:13:55;100988.0;;;24.09;33.67
48530;BME280;34927;37.302;-121.982;2023-03-23T03:15:10;100989.0;;;23.83;34.10
48530;BME280;34927;37.302;-121.982;2023-03-23T03:16:23;100995.0;;;23.55;34.38
48530;BME280;34927;37.302;-121.982;2023-03-23T03:17:32;100999.0;;;23.42;34.61
48530;BME280;34927;37.302;-121.982;2023-03-23T03:18:46;101001.0;;;23.38;34.78
48530;BME280;34927;37.302;-121.982;2023-03-23T03:19:57;101005.0;;;23.24;34.89
48530;BME280;34927;37.302;-121.982;2023-03-23T03:21:06;101004.0;;;23.20;35.03
48530;BME280;34927;37.302;-121.982;2023-03-23T03:22:12;101003.0;;;23.06;35.18
48530;BME280;34927;37.302;-121.982;2023-03-23T03:23:17;101004.0;;;23.03;35.23
48530;BME280;34927;37.302;-121.982;2023-03-23T03:24:23;101004.0;;;22.94;35.37
48530;BME280;34927;37.302;-121.982;2023-03-23T03:25:27;101010.0;;;22.88;35.49
48530;BME280;34927;37.302;-121.982;2023-03-23T03:26:34;101009.0;;;22.89;35.49
48530;BME280;34927;37.302;-121.982;2023-03-23T03:27:37;101011.0;;;22.82;35.59
48530;BME280;34927;37.302;-121.982;2023-03-23T03:28:41;101013.0;;;22.70;35.74
48530;BME280;34927;37.302;-121.982;2023-03-23T03:29:51;101016.0;;;22.61;35.81
48530;BME280;34927;37.302;-121.982;2023-03-23T03:30:58;101015.0;;;22.47;36.18
48530;BME280;34927;37.302;-121.982;2023-03-23T03:32:08;101016.0;;;22.45;36.16
48530;BME280;34927;37.302;-121.982;2023-03-23T03:33:12;101017.0;;;22.42;36.12
48530;BME280;34927;37.302;-121.982;2023-03-23T03:34:17;101018.0;;;22.42;36.20
48530;BME280;34927;37.302;-121.982;2023-03-23T03:35:23;101021.0;;;22.62;35.70
48530;BME280;34927;37.302;-121.982;2023-03-23T03:36:30;101021.0;;;22.90;35.29
48530;BME280;34927;37.302;-121.982;2023-03-23T03:37:38;101023.0;;;23.31;34.76
48530;BME280;34927;37.302;-121.982;2023-03-23T03:38:43;101025.0;;;23.60;34.23
48530;BME280;34927;37.302;-121.982;2023-03-23T03:39:47;101027.0;;;23.92;33.71
48530;BME280;34927;37.302;-121.982;2023-03-23T03:40:52;101028.0;;;24.11;33.41
48530;BME280;34927;37.302;-121.982;2023-03-23T03:41:57;101030.0;;;24.03;33.46
48530;BME280;34927;37.302;-121.982;2023-03-23T03:43:12;101032.0;;;23.91;33.62
48530;BME280;34927;37.302;-121.982;2023-03-23T03:44:16;101036.0;;;23.66;34.12
48530;BME280;34927;37.302;-121.982;2023-03-23T03:45:24;101037.0;;;23.51;34.34
48530;BME280;34927;37.302;-121.982;2023-03-23T03:46:31;101039.0;;;23.38;34.49
48530;BME280;34927;37.302;-121.982;2023-03-23T03:47:36;101044.0;;;23.27;34.69
48530;BME280;34927;37.302;-121.982;2023-03-23T03:48:42;101047.0;;;23.17;34.83
48530;BME280;34927;37.302;-121.982;2023-03-23T03:49:47;101045.0;;;23.17;34.75
48530;BME280;34927;37.302;-121.982;2023-03-23T03:50:53;101050.0;;;23.14;34.82
48530;BME280;34927;37.302;-121.982;2023-03-23T03:51:56;101054.0;;;23.28;34.50
48530;BME280;34927;37.302;-121.982;2023-03-23T03:53:02;101057.0;;;23.10;35.03
48530;BME280;34927;37.302;-121.982;2023-03-23T03:54:07;101063.0;;;22.95;35.59
48530;BME280;34927;37.302;-121.982;2023-03-23T03:55:12;101065.0;;;22.97;35.44
48530;BME280;34927;37.302;-121.982;2023-03-23T03:56:16;101065.0;;;22.83;36.17
48530;BME280;34927;37.302;-121.982;2023-03-23T03:57:22;101068.0;;;22.90;35.97
48530;BME280;34927;37.302;-121.982;2023-03-23T03:58:26;101066.0;;;22.69;36.42
48530;BME280;34927;37.302;-121.982;2023-03-23T03:59:32;101069.0;;;22.72;36.56
48530;BME280;34927;37.302;-121.982;2023-03-23T04:00:36;101069.0;;;22.76;36.30
48530;BME280;34927;37.302;-121.982;2023-03-23T04:01:45;101073.0;;;22.80;36.39
48530;BME280;34927;37.302;-121.982;2023-03-23T04:02:49;101075.0;;;22.59;36.71
48530;BME280;34927;37.302;-121.982;2023-03-23T04:03:52;101078.0;;;22.59;36.77
48530;BME280;34927;37.302;-121.982;2023-03-23T04:04:57;101078.0;;;22.44;37.10
48530;BME280;34927;37.302;-121.982;2023-03-23T04:06:02;101077.0;;;22.36;37.41
48530;BME280;34927;37.302;-121.982;2023-03-23T04:07:07;101078.0;;;22.39;37.23
48530;BME280;34927;37.302;-121.982;2023-03-23T04:08:11;101081.0;;;22.63;36.77
48530;BME280;34927;37.302;-121.982;2023-03-23T04:09:23;101084.0;;;22.96;36.43
48530;BME280;34927;37.302;-121.982;2023-03-23T04:10:28;101083.0;;;23.30;36.06
48530;BME280;34927;37.302;-121.982;2023-03-23T04:11:32;101085.0;;;23.61;35.73
48530;BME280;34927;37.302;-121.982;2023-03-23T04:12:37;101087.0;;;23.85;35.42
48530;BME280;34927;37.302;-121.982;2023-03-23T04:13:41;101092.0;;;23.84;35.49
48530;BME280;34927;37.302;-121.982;2023-03-23T04:14:47;101094.0;;;23.70;35.87
48530;BME280;34927;37.302;-121.982;2023-03-23T04:15:52;101094.0;;;23.58;36.16
48530;BME280;34927;37.302;-121.982;2023-03-23T04:16:56;101098.0;;;23.55;36.21
48530;BME280;34927;37.302;-121.982;2023-03-23T04:18:01;101095.0;;;23.42;36.24
48530;BME280;34927;37.302;-121.982;2023-03-23T04:19:07;101099.0;;;23.32;36.43
48530;BME280;34927;37.302;-121.982;2023-03-23T04:20:12;101102.0;;;23.17;36.83
48530;BME280;34927;37.302;-121.982;2023-03-23T04:21:18;101101.0;;;22.98;36.98
48530;BME280;34927;37.302;-121.982;2023-03-23T04:22:27;101103.0;;;22.95;36.74
48530;BME280;34927;37.302;-121.982;2023-03-23T04:23:32;101108.0;;;22.85;37.13
48530;BME280;34927;37.302;-121.982;2023-03-23T04:24:37;101108.0;;;22.93;37.06
48530;BME280;34927;37.302;-121.982;2023-03-23T04:25:42;101107.0;;;22.73;37.44
48530;BME280;34927;37.302;-121.982;2023-03-23T04:26:47;101108.0;;;22.60;37.55
48530;BME280;34927;37.302;-121.982;2023-03-23T04:27:52;101110.0;;;22.61;37.79
48530;BME280;34927;37.302;-121.982;2023-03-23T04:28:58;101113.0;;;22.60;37.79
48530;BME280;34927;37.302;-121.982;2023-03-23T04:30:02;101113.0;;;22.61;37.87
48530;BME280;34927;37.302;-121.982;2023-03-23T04:31:06;101112.0;;;22.44;38.20
48530;BME280;34927;37.302;-121.982;2023-03-23T04:32:12;101114.0;;;22.32;38.40
48530;BME280;34927;37.302;-121.982;2023-03-23T04:33:16;101113.0;;;22.40;38.25
48530;BME280;34927;37.302;-121.982;2023-03-23T04:34:22;101117.0;;;22.38;38.27
48530;BME280;34927;37.302;-121.982;2023-03-23T04:35:27;101120.0;;;22.38;38.39
48530;BME280;34927;37.302;-121.982;2023-03-23T04:36:32;101124.0;;;22.31;38.53
48530;BME280;34927;37.302;-121.982;2023-03-23T04:37:38;101125.0;;;22.40;38.25
48530;BME280;34927;37.302;-121.982;2023-03-23T04:38:42;101129.0;;;22.39;38.28
48530;BME280;34927;37.302;-121.982;2023-03-23T04:39:47;101131.0;;;22.27;38.58
48530;BME280;34927;37.302;-121.982;2023-03-23T04:40:53;101132.0;;;22.37;38.29
48530;BME280;34927;37.302;-121.982;2023-03-23T04:42:02;101133.0;;;22.28;38.44
48530;BME280;34927;37.302;-121.982;2023-03-23T04:43:07;101131.0;;;22.50;37.73
48530;BME280;34927;37.302;-121.982;2023-03-23T04:44:12;101134.0;;;22.86;37.19
48530;BME280;34927;37.302;-121.982;2023-03-23T04:45:19;101131.0;;;23.14;36.73
48530;BME280;34927;37.302;-121.982;2023-03-23T04:46:21;101132.0;;;23.46;36.19
48530;BME280;34927;37.302;-121.982;2023-03-23T04:47:27;101132.0;;;23.78;35.57
48530;BME280;34927;37.302;-121.982;2023-03-23T04:48:32;101135.0;;;23.96;35.26
48530;BME280;34927;37.302;-121.982;2023-03-23T04:49:38;101140.0;;;23.87;35.28
48530;BME280;34927;37.302;-121.982;2023-03-23T04:50:41;101141.0;;;23.62;36.11
48530;BME280;34927;37.302;-121.982;2023-03-23T04:51:47;101140.0;;;23.70;36.00
48530;BME280;34927;37.302;-121.982;2023-03-23T04:52:52;101144.0;;;23.45;36.39
48530;BME280;34927;37.302;-121.982;2023-03-23T04:53:57;101144.0;;;23.36;36.42
48530;BME280;34927;37.302;-121.982;2023-03-23T04:55:02;101147.0;;;23.18;36.80
48530;BME280;34927;37.302;-121.982;2023-03-23T04:56:07;101151.0;;;23.00;36.96
48530;BME280;34927;37.302;-121.982;2023-03-23T04:57:11;101153.0;;;22.79;37.36
48530;BME280;34927;37.302;-121.982;2023-03-23T04:58:17;101155.0;;;22.92;36.91
48530;BME280;34927;37.302;-121.982;2023-03-23T04:59:21;101155.0;;;22.92;36.88
48530;BME280;34927;37.302;-121.982;2023-03-23T05:00:26;101156.0;;;22.88;37.07
48530;BME280;34927;37.302;-121.982;2023-03-23T05:01:32;101153.0;;;22.65;37.37
48530;BME280;34927;37.302;-121.982;2023-03-23T05:02:37;101153.0;;;22.78;37.07
48530;BME280;34927;37.302;-121.982;2023-03-23T05:03:42;101156.0;;;22.88;36.91
48530;BME280;34927;37.302;-121.982;2023-03-23T05:04:46;101156.0;;;22.80;37.06
48530;BME280;34927;37.302;-121.982;2023-03-23T05:05:51;101158.0;;;22.85;37.05
48530;BME280;34927;37.302;-121.982;2023-03-23T05:06:56;101158.0;;;22.68;37.24
48530;BME280;34927;37.302;-121.982;2023-03-23T05:08:02;101162.0;;;22.65;37.38
48530;BME280;34927;37.302;-121.982;2023-03-23T05:09:07;101165.0;;;22.71;37.17
48530;BME280;34927;37.302;-121.982;2023-03-23T05:10:12;101168.0;;;22.70;37.18
48530;BME280;34927;37.302;-121.982;2023-03-23T05:11:16;101170.0;;;22.77;36.94
48530;BME280;34927;37.302;-121.982;2023-03-23T05:12:22;101171.0;;;22.78;36.90
48530;BME280;34927;37.302;-121.982;2023-03-23T05:13:28;101172.0;;;22.78;37.01
48530;BME280;34927;37.302;-121.982;2023-03-23T05:14:32;101173.0;;;22.68;37.11
48530;BME280;34927;37.302;-121.982;2023-03-23T05:15:37;101173.0;;;22.68;37.04
48530;BME280;34927;37.302;-121.982;2023-03-23T05:16:42;101173.0;;;22.61;37.31
48530;BME280;34927;37.302;-121.982;2023-03-23T05:17:46;101173.0;;;22.76;36.78
48530;BME280;34927;37.302;-121.982;2023-03-23T05:18:58;101174.0;;;22.93;36.45
48530;BME280;34927;37.302;-121.982;2023-03-23T05:20:03;101177.0;;;23.23;35.89
48530;BME280;34927;37.302;-121.982;2023-03-23T05:21:07;101174.0;;;23.57;35.28
48530;BME280;34927;37.302;-121.982;2023-03-23T05:22:11;101172.0;;;23.84;34.75
48530;BME280;34927;37.302;-121.982;2023-03-23T05:23:17;101174.0;;;24.01;34.37
48530;BME280;34927;37.302;-121.982;2023-03-23T05:24:23;101175.0;;;23.97;34.39
48530;BME280;34927;37.302;-121.982;2023-03-23T05:25:27;101173.0;;;23.81;34.67
48530;BME280;34927;37.302;-121.982;2023-03-23T05:26:32;101176.0;;;23.72;34.87
48530;BME280;34927;37.302;-121.982;2023-03-23T05:27:37;101176.0;;;23.58;34.96
48530;BME280;34927;37.302;-121.982;2023-03-23T05:28:42;101180.0;;;23.34;35.17
48530;BME280;34927;37.302;-121.982;2023-03-23T05:29:46;101184.0;;;23.18;35.43
48530;BME280;34927;37.302;-121.982;2023-03-23T05:30:51;101181.0;;;23.08;35.53
48530;BME280;34927;37.302;-121.982;2023-03-23T05:31:56;101183.0;;;22.98;35.76
48530;BME280;34927;37.302;-121.982;2023-03-23T05:33:02;101187.0;;;22.91;35.78
48530;BME280;34927;37.302;-121.982;2023-03-23T05:34:07;101187.0;;;23.00;35.67
48530;BME280;34927;37.302;-121.982;2023-03-23T05:35:12;101189.0;;;22.67;36.67
48530;BME280;34927;37.302;-121.982;2023-03-23T05:36:16;101187.0;;;22.52;37.02
48530;BME280;34927;37.302;-121.982;2023-03-23T05:37:22;101190.0;;;22.63;36.58
48530;BME280;34927;37.302;-121.982;2023-03-23T05:38:26;101192.0;;;22.75;36.47
48530;BME280;34927;37.302;-121.982;2023-03-23T05:39:33;101190.0;;;22.43;37.43
48530;BME280;34927;37.302;-121.982;2023-03-23T05:40:36;101192.0;;;22.24;38.06
48530;BME280;34927;37.302;-121.982;2023-03-23T05:41:42;101195.0;;;22.30;37.94
48530;BME280;34927;37.302;-121.982;2023-03-23T05:42:48;101197.0;;;22.28;38.11